sensor_id;sensor_type;location;lat;lon;timestamp;pressure;altitude;pressure_sealevel;temperature;humidity
45927;BME280;31639;47.614;19.684;2022-07-25T00:01:21;100461.22;;;20.01;50.89
45927;BME280;31639;47.614;19.684;2022-07-25T00:06:22;100457.38;;;19.83;51.59
45927;BME280;31639;47.614;19.684;2022-07-25T00:11:23;100456.41;;;19.74;51.95
45927;BME280;31639;47.614;19.684;2022-07-25T00:16:23;100458.38;;;19.63;52.46
45927;BME280;31639;47.614;19.684;2022-07-25T00:21:24;100454.69;;;19.59;52.59
45927;BME280;31639;47.614;19.684;2022-07-25T00:26:24;100452.97;;;19.44;52.73
45927;BME280;31639;47.614;19.684;2022-07-25T00:31:24;100458.72;;;19.27;53.09
45927;BME280;31639;47.614;19.684;2022-07-25T00:36:25;100460.25;;;19.03;53.41
45927;BME280;31639;47.614;19.684;2022-07-25T00:41:25;100456.41;;;18.75;53.74
45927;BME280;31639;47.614;19.684;2022-07-25T00:46:25;100454.06;;;18.58;54.32
45927;BME280;31639;47.614;19.684;2022-07-25T00:51:26;100456.31;;;18.40;54.53
45927;BME280;31639;47.614;19.684;2022-07-25T00:56:26;100457.44;;;18.29;54.59
45927;BME280;31639;47.614;19.684;2022-07-25T01:01:27;100449.72;;;18.17;54.92
45927;BME280;31639;47.614;19.684;2022-07-25T01:06:28;100452.69;;;18.15;55.17
45927;BME280;31639;47.614;19.684;2022-07-25T01:11:28;100442.81;;;18.11;55.59
45927;BME280;31639;47.614;19.684;2022-07-25T01:16:29;100452.19;;;18.03;56.00
45927;BME280;31639;47.614;19.684;2022-07-25T01:21:29;100449.53;;;17.93;56.36
45927;BME280;31639;47.614;19.684;2022-07-25T01:26:30;100450.06;;;17.90;56.58
45927;BME280;31639;47.614;19.684;2022-07-25T01:31:31;100450.38;;;17.67;56.45
45927;BME280;31639;47.614;19.684;2022-07-25T01:36:31;100451.19;;;17.52;56.91
45927;BME280;31639;47.614;19.684;2022-07-25T01:41:32;100451.47;;;17.40;57.03
45927;BME280;31639;47.614;19.684;2022-07-25T01:46:32;100451.22;;;17.11;57.52
45927;BME280;31639;47.614;19.684;2022-07-25T01:51:33;100441.34;;;17.06;57.46
45927;BME280;31639;47.614;19.684;2022-07-25T01:56:33;100441.06;;;17.08;58.41
45927;BME280;31639;47.614;19.684;2022-07-25T02:01:35;100443.19;;;16.95;58.23
45927;BME280;31639;47.614;19.684;2022-07-25T02:06:35;100446.88;;;16.89;58.84
45927;BME280;31639;47.614;19.684;2022-07-25T02:11:36;100437.56;;;16.87;59.32
45927;BME280;31639;47.614;19.684;2022-07-25T02:16:36;100443.19;;;16.85;60.30
45927;BME280;31639;47.614;19.684;2022-07-25T02:21:37;100435.19;;;16.85;60.25
45927;BME280;31639;47.614;19.684;2022-07-25T02:26:37;100437.03;;;16.85;60.16
45927;BME280;31639;47.614;19.684;2022-07-25T02:31:37;100447.19;;;16.98;60.00
45927;BME280;31639;47.614;19.684;2022-07-25T02:36:38;100444.53;;;17.19;59.51
45927;BME280;31639;47.614;19.684;2022-07-25T02:41:38;100447.22;;;17.08;59.13
45927;BME280;31639;47.614;19.684;2022-07-25T02:46:39;100445.88;;;17.11;59.86
45927;BME280;31639;47.614;19.684;2022-07-25T02:51:39;100452.00;;;17.06;60.04
45927;BME280;31639;47.614;19.684;2022-07-25T02:56:40;100462.16;;;17.09;60.89
45927;BME280;31639;47.614;19.684;2022-07-25T03:01:40;100468.50;;;16.93;60.60
45927;BME280;31639;47.614;19.684;2022-07-25T03:06:40;100471.16;;;16.88;61.09
45927;BME280;31639;47.614;19.684;2022-07-25T03:11:41;100469.84;;;16.95;60.69
45927;BME280;31639;47.614;19.684;2022-07-25T03:16:41;100470.88;;;16.79;59.96
45927;BME280;31639;47.614;19.684;2022-07-25T03:21:41;100477.53;;;16.76;59.78
45927;BME280;31639;47.614;19.684;2022-07-25T03:26:42;100476.19;;;16.69;59.67
45927;BME280;31639;47.614;19.684;2022-07-25T03:31:43;100481.16;;;16.39;59.42
45927;BME280;31639;47.614;19.684;2022-07-25T03:36:43;100478.63;;;16.12;59.89
45927;BME280;31639;47.614;19.684;2022-07-25T03:41:44;100473.22;;;16.01;60.76
45927;BME280;31639;47.614;19.684;2022-07-25T03:46:44;100480.78;;;16.15;60.43
45927;BME280;31639;47.614;19.684;2022-07-25T03:51:45;100475.47;;;16.25;60.53
45927;BME280;31639;47.614;19.684;2022-07-25T03:56:47;100477.13;;;16.31;60.60
45927;BME280;31639;47.614;19.684;2022-07-25T04:01:49;100478.47;;;16.39;60.24
45927;BME280;31639;47.614;19.684;2022-07-25T04:06:49;100478.78;;;16.53;60.09
45927;BME280;31639;47.614;19.684;2022-07-25T04:11:50;100481.78;;;16.83;59.51
45927;BME280;31639;47.614;19.684;2022-07-25T04:16:50;100486.13;;;17.04;59.14
45927;BME280;31639;47.614;19.684;2022-07-25T04:21:50;100478.16;;;17.40;58.74
45927;BME280;31639;47.614;19.684;2022-07-25T04:26:51;100468.78;;;17.79;58.15
45927;BME280;31639;47.614;19.684;2022-07-25T04:31:51;100479.38;;;18.15;57.43
45927;BME280;31639;47.614;19.684;2022-07-25T04:36:52;100471.25;;;18.41;56.46
45927;BME280;31639;47.614;19.684;2022-07-25T04:41:53;100466.88;;;18.66;55.70
45927;BME280;31639;47.614;19.684;2022-07-25T04:46:53;100475.88;;;19.20;54.53
45927;BME280;31639;47.614;19.684;2022-07-25T04:51:53;100472.81;;;19.67;53.30
45927;BME280;31639;47.614;19.684;2022-07-25T04:56:54;100482.19;;;20.18;52.28
45927;BME280;31639;47.614;19.684;2022-07-25T05:01:54;100481.66;;;20.60;50.74
45927;BME280;31639;47.614;19.684;2022-07-25T05:06:55;100488.47;;;21.09;49.93
45927;BME280;31639;47.614;19.684;2022-07-25T05:11:55;100487.03;;;21.50;48.52
45927;BME280;31639;47.614;19.684;2022-07-25T05:16:56;100489.69;;;21.83;47.99
45927;BME280;31639;47.614;19.684;2022-07-25T05:21:56;100488.31;;;22.14;47.33
45927;BME280;31639;47.614;19.684;2022-07-25T05:26:56;100488.69;;;22.49;46.62
45927;BME280;31639;47.614;19.684;2022-07-25T05:31:57;100489.84;;;22.71;45.99
45927;BME280;31639;47.614;19.684;2022-07-25T05:36:57;100478.13;;;22.89;45.61
45927;BME280;31639;47.614;19.684;2022-07-25T05:41:58;100477.50;;;23.15;45.12
45927;BME280;31639;47.614;19.684;2022-07-25T05:46:58;100476.81;;;23.23;44.56
45927;BME280;31639;47.614;19.684;2022-07-25T05:51:58;100464.06;;;23.38;44.33
45927;BME280;31639;47.614;19.684;2022-07-25T05:56:59;100470.09;;;23.75;43.91
45927;BME280;31639;47.614;19.684;2022-07-25T06:02:00;100472.75;;;23.98;43.22
45927;BME280;31639;47.614;19.684;2022-07-25T06:07:01;100470.91;;;24.33;42.60
45927;BME280;31639;47.614;19.684;2022-07-25T06:12:01;100476.94;;;24.65;41.67
45927;BME280;31639;47.614;19.684;2022-07-25T06:17:02;100475.22;;;25.05;41.05
45927;BME280;31639;47.614;19.684;2022-07-25T06:22:02;100467.38;;;25.47;39.69
45927;BME280;31639;47.614;19.684;2022-07-25T06:27:03;100469.94;;;25.82;39.58
45927;BME280;31639;47.614;19.684;2022-07-25T06:32:04;100462.78;;;26.17;38.37
45927;BME280;31639;47.614;19.684;2022-07-25T06:37:04;100460.28;;;26.33;38.30
45927;BME280;31639;47.614;19.684;2022-07-25T06:42:05;100449.38;;;26.63;38.04
45927;BME280;31639;47.614;19.684;2022-07-25T06:47:05;100452.81;;;26.93;37.24
45927;BME280;31639;47.614;19.684;2022-07-25T06:52:11;100450.28;;;27.34;36.37
45927;BME280;31639;47.614;19.684;2022-07-25T06:57:12;100446.06;;;27.70;35.82
45927;BME280;31639;47.614;19.684;2022-07-25T07:02:12;100443.22;;;28.04;34.83
45927;BME280;31639;47.614;19.684;2022-07-25T07:07:13;100432.91;;;28.22;33.93
45927;BME280;31639;47.614;19.684;2022-07-25T07:12:14;100438.97;;;28.44;33.38
45927;BME280;31639;47.614;19.684;2022-07-25T07:17:14;100439.03;;;28.60;32.48
45927;BME280;31639;47.614;19.684;2022-07-25T07:22:14;100434.66;;;28.83;31.80
45927;BME280;31639;47.614;19.684;2022-07-25T07:27:15;100432.22;;;29.10;31.30
45927;BME280;31639;47.614;19.684;2022-07-25T07:32:16;100430.16;;;29.20;31.17
45927;BME280;31639;47.614;19.684;2022-07-25T07:37:16;100442.69;;;29.56;30.07
45927;BME280;31639;47.614;19.684;2022-07-25T07:42:16;100427.81;;;29.86;30.15
45927;BME280;31639;47.614;19.684;2022-07-25T07:47:17;100428.22;;;30.04;28.90
45927;BME280;31639;47.614;19.684;2022-07-25T07:52:19;100429.81;;;30.44;29.16
45927;BME280;31639;47.614;19.684;2022-07-25T07:57:19;100418.50;;;30.81;28.13
45927;BME280;31639;47.614;19.684;2022-07-25T08:02:20;100424.75;;;31.29;27.21
45927;BME280;31639;47.614;19.684;2022-07-25T08:07:20;100424.94;;;31.39;27.30
45927;BME280;31639;47.614;19.684;2022-07-25T08:12:20;100423.06;;;31.70;26.42
45927;BME280;31639;47.614;19.684;2022-07-25T08:17:21;100422.22;;;31.93;25.99
45927;BME280;31639;47.614;19.684;2022-07-25T08:22:21;100427.31;;;31.95;25.12
45927;BME280;31639;47.614;19.684;2022-07-25T08:27:22;100419.22;;;32.02;25.76
45927;BME280;31639;47.614;19.684;2022-07-25T08:32:22;100410.06;;;32.52;25.14
45927;BME280;31639;47.614;19.684;2022-07-25T08:37:22;100407.16;;;33.13;24.72
45927;BME280;31639;47.614;19.684;2022-07-25T08:42:23;100387.75;;;33.29;24.17
45927;BME280;31639;47.614;19.684;2022-07-25T08:47:24;100392.25;;;33.03;24.36
45927;BME280;31639;47.614;19.684;2022-07-25T08:52:25;100393.94;;;32.77;24.31
45927;BME280;31639;47.614;19.684;2022-07-25T08:57:26;100392.38;;;32.76;24.15
45927;BME280;31639;47.614;19.684;2022-07-25T09:02:27;100378.84;;;32.15;24.87
45927;BME280;31639;47.614;19.684;2022-07-25T09:07:32;100380.88;;;32.25;25.12
45927;BME280;31639;47.614;19.684;2022-07-25T09:12:33;100382.63;;;32.78;24.91
45927;BME280;31639;47.614;19.684;2022-07-25T09:17:35;100387.13;;;33.46;24.39
45927;BME280;31639;47.614;19.684;2022-07-25T09:22:43;100371.78;;;34.08;23.58
45927;BME280;31639;47.614;19.684;2022-07-25T09:27:44;100372.66;;;34.38;22.84
45927;BME280;31639;47.614;19.684;2022-07-25T09:32:44;100364.91;;;34.58;23.01
45927;BME280;31639;47.614;19.684;2022-07-25T09:37:45;100362.94;;;34.84;22.54
45927;BME280;31639;47.614;19.684;2022-07-25T09:42:49;100368.81;;;34.64;22.42
45927;BME280;31639;47.614;19.684;2022-07-25T09:47:51;100359.00;;;34.41;22.57
45927;BME280;31639;47.614;19.684;2022-07-25T09:52:54;100349.28;;;34.87;22.45
45927;BME280;31639;47.614;19.684;2022-07-25T09:57:54;100334.38;;;34.78;22.75
45927;BME280;31639;47.614;19.684;2022-07-25T10:03:00;100340.63;;;35.25;22.70
45927;BME280;31639;47.614;19.684;2022-07-25T10:08:06;100337.41;;;35.67;21.95
45927;BME280;31639;47.614;19.684;2022-07-25T10:13:13;100330.41;;;35.51;20.85
45927;BME280;31639;47.614;19.684;2022-07-25T10:18:19;100330.97;;;36.06;21.53
45927;BME280;31639;47.614;19.684;2022-07-25T10:23:25;100313.06;;;36.47;20.77
45927;BME280;31639;47.614;19.684;2022-07-25T10:28:41;100315.16;;;36.25;20.34
45927;BME280;31639;47.614;19.684;2022-07-25T10:33:42;100308.25;;;36.02;21.33
45927;BME280;31639;47.614;19.684;2022-07-25T10:38:44;100298.59;;;36.35;20.76
45927;BME280;31639;47.614;19.684;2022-07-25T10:43:45;100284.41;;;36.90;20.32
45927;BME280;31639;47.614;19.684;2022-07-25T10:48:59;100283.81;;;37.13;19.70
45927;BME280;31639;47.614;19.684;2022-07-25T10:54:12;100276.44;;;37.41;19.95
45927;BME280;31639;47.614;19.684;2022-07-25T10:59:12;100262.50;;;37.21;19.50
45927;BME280;31639;47.614;19.684;2022-07-25T11:04:14;100262.44;;;37.28;19.47
45927;BME280;31639;47.614;19.684;2022-07-25T11:09:23;100255.00;;;37.25;19.33
45927;BME280;31639;47.614;19.684;2022-07-25T11:14:36;100244.31;;;37.62;19.14
45927;BME280;31639;47.614;19.684;2022-07-25T11:19:36;100238.66;;;37.76;18.24
45927;BME280;31639;47.614;19.684;2022-07-25T11:24:44;100230.63;;;36.89;18.30
45927;BME280;31639;47.614;19.684;2022-07-25T11:29:45;100226.72;;;37.24;18.55
45927;BME280;31639;47.614;19.684;2022-07-25T11:34:47;100209.00;;;36.91;18.59
45927;BME280;31639;47.614;19.684;2022-07-25T11:39:48;100207.09;;;37.53;18.73
45927;BME280;31639;47.614;19.684;2022-07-25T11:44:50;100205.44;;;38.14;18.21
45927;BME280;31639;47.614;19.684;2022-07-25T11:49:53;100204.34;;;37.22;17.90
45927;BME280;31639;47.614;19.684;2022-07-25T11:55:03;100193.59;;;37.32;18.26
45927;BME280;31639;47.614;19.684;2022-07-25T12:00:17;100184.81;;;39.47;16.07
45927;BME280;31639;47.614;19.684;2022-07-25T12:05:20;100164.50;;;44.01;12.43
45927;BME280;31639;47.614;19.684;2022-07-25T12:10:23;100155.22;;;46.34;10.85
45927;BME280;31639;47.614;19.684;2022-07-25T12:15:26;100148.00;;;48.47;10.03
45927;BME280;31639;47.614;19.684;2022-07-25T12:20:29;100148.13;;;49.40;8.85
45927;BME280;31639;47.614;19.684;2022-07-25T12:25:31;100137.81;;;48.76;9.34
45927;BME280;31639;47.614;19.684;2022-07-25T12:30:32;100136.91;;;49.34;8.98
45927;BME280;31639;47.614;19.684;2022-07-25T12:35:33;100124.13;;;48.52;8.87
45927;BME280;31639;47.614;19.684;2022-07-25T12:40:36;100117.63;;;47.87;9.42
45927;BME280;31639;47.614;19.684;2022-07-25T12:45:38;100119.06;;;46.85;10.06
45927;BME280;31639;47.614;19.684;2022-07-25T12:50:39;100108.97;;;46.72;10.49
45927;BME280;31639;47.614;19.684;2022-07-25T12:55:40;100095.00;;;47.23;10.03
45927;BME280;31639;47.614;19.684;2022-07-25T13:00:41;100090.84;;;47.54;9.46
45927;BME280;31639;47.614;19.684;2022-07-25T13:05:41;100088.69;;;46.57;9.72
45927;BME280;31639;47.614;19.684;2022-07-25T13:10:42;100082.81;;;46.10;9.95
45927;BME280;31639;47.614;19.684;2022-07-25T13:15:42;100075.94;;;46.86;9.69
45927;BME280;31639;47.614;19.684;2022-07-25T13:20:42;100052.78;;;47.36;9.80
45927;BME280;31639;47.614;19.684;2022-07-25T13:25:43;100050.31;;;47.65;9.59
45927;BME280;31639;47.614;19.684;2022-07-25T13:30:43;100047.88;;;47.99;9.03
45927;BME280;31639;47.614;19.684;2022-07-25T13:35:43;100036.63;;;48.19;9.22
45927;BME280;31639;47.614;19.684;2022-07-25T13:40:44;100025.06;;;47.33;9.71
45927;BME280;31639;47.614;19.684;2022-07-25T13:45:45;100025.00;;;47.47;9.24
45927;BME280;31639;47.614;19.684;2022-07-25T13:50:45;100012.75;;;47.45;9.64
45927;BME280;31639;47.614;19.684;2022-07-25T13:55:47;100009.69;;;48.54;9.43
45927;BME280;31639;47.614;19.684;2022-07-25T14:00:48;99999.31;;;48.28;8.86
45927;BME280;31639;47.614;19.684;2022-07-25T14:05:48;100008.44;;;47.44;9.36
45927;BME280;31639;47.614;19.684;2022-07-25T14:10:49;99991.63;;;47.38;9.55
45927;BME280;31639;47.614;19.684;2022-07-25T14:15:49;99985.19;;;48.38;9.38
45927;BME280;31639;47.614;19.684;2022-07-25T14:20:49;99979.38;;;48.90;8.81
45927;BME280;31639;47.614;19.684;2022-07-25T14:25:50;99981.91;;;48.94;8.78
45927;BME280;31639;47.614;19.684;2022-07-25T14:30:50;99969.53;;;48.57;8.84
45927;BME280;31639;47.614;19.684;2022-07-25T14:35:51;99971.25;;;48.49;8.67
45927;BME280;31639;47.614;19.684;2022-07-25T14:40:51;99966.44;;;48.17;8.70
45927;BME280;31639;47.614;19.684;2022-07-25T14:45:52;99947.63;;;47.33;9.35
45927;BME280;31639;47.614;19.684;2022-07-25T14:50:52;99952.28;;;46.59;9.37
45927;BME280;31639;47.614;19.684;2022-07-25T14:55:53;99941.19;;;47.00;9.77
45927;BME280;31639;47.614;19.684;2022-07-25T15:00:54;99932.19;;;47.90;9.28
45927;BME280;31639;47.614;19.684;2022-07-25T15:05:54;99928.97;;;48.03;8.93
45927;BME280;31639;47.614;19.684;2022-07-25T15:10:55;99932.84;;;46.29;9.62
45927;BME280;31639;47.614;19.684;2022-07-25T15:15:56;99919.13;;;43.49;11.07
45927;BME280;31639;47.614;19.684;2022-07-25T15:20:56;99910.75;;;42.33;11.98
45927;BME280;31639;47.614;19.684;2022-07-25T15:25:58;99908.56;;;41.74;12.49
45927;BME280;31639;47.614;19.684;2022-07-25T15:30:59;99898.66;;;41.29;13.29
45927;BME280;31639;47.614;19.684;2022-07-25T15:35:59;99890.19;;;40.49;13.83
45927;BME280;31639;47.614;19.684;2022-07-25T15:41:00;99892.19;;;39.80;14.35
45927;BME280;31639;47.614;19.684;2022-07-25T15:46:00;99881.50;;;39.53;14.66
45927;BME280;31639;47.614;19.684;2022-07-25T15:51:01;99869.44;;;38.84;14.60
45927;BME280;31639;47.614;19.684;2022-07-25T15:56:01;99861.41;;;38.73;14.85
45927;BME280;31639;47.614;19.684;2022-07-25T16:01:02;99868.84;;;39.39;14.53
45927;BME280;31639;47.614;19.684;2022-07-25T16:06:03;99858.63;;;39.95;14.09
45927;BME280;31639;47.614;19.684;2022-07-25T16:11:03;99865.69;;;39.53;13.90
45927;BME280;31639;47.614;19.684;2022-07-25T16:16:04;99858.69;;;40.21;13.72
45927;BME280;31639;47.614;19.684;2022-07-25T16:21:05;99854.53;;;41.25;13.35
45927;BME280;31639;47.614;19.684;2022-07-25T16:26:05;99858.88;;;41.13;12.39
45927;BME280;31639;47.614;19.684;2022-07-25T16:31:07;99860.50;;;39.26;13.66
45927;BME280;31639;47.614;19.684;2022-07-25T16:36:10;99857.75;;;37.50;15.24
45927;BME280;31639;47.614;19.684;2022-07-25T16:41:10;99856.38;;;36.66;16.01
45927;BME280;31639;47.614;19.684;2022-07-25T16:46:11;99860.22;;;36.14;16.52
45927;BME280;31639;47.614;19.684;2022-07-25T16:51:11;99856.88;;;35.99;17.51
45927;BME280;31639;47.614;19.684;2022-07-25T16:56:12;99856.22;;;35.53;17.60
45927;BME280;31639;47.614;19.684;2022-07-25T17:01:13;99866.66;;;35.27;17.36
45927;BME280;31639;47.614;19.684;2022-07-25T17:06:14;99856.34;;;34.93;18.35
45927;BME280;31639;47.614;19.684;2022-07-25T17:11:15;99854.72;;;34.50;18.29
45927;BME280;31639;47.614;19.684;2022-07-25T17:16:15;99854.88;;;34.10;18.43
45927;BME280;31639;47.614;19.684;2022-07-25T17:21:16;99840.50;;;33.81;18.73
45927;BME280;31639;47.614;19.684;2022-07-25T17:26:18;99845.72;;;33.39;19.02
45927;BME280;31639;47.614;19.684;2022-07-25T17:31:18;99836.38;;;32.86;19.59
45927;BME280;31639;47.614;19.684;2022-07-25T17:36:20;99836.31;;;32.53;19.76
45927;BME280;31639;47.614;19.684;2022-07-25T17:41:20;99832.72;;;32.24;20.31
45927;BME280;31639;47.614;19.684;2022-07-25T17:46:21;99835.31;;;31.91;20.80
45927;BME280;31639;47.614;19.684;2022-07-25T17:51:21;99841.38;;;31.63;21.41
45927;BME280;31639;47.614;19.684;2022-07-25T17:56:22;99842.66;;;31.17;21.46
45927;BME280;31639;47.614;19.684;2022-07-25T18:01:22;99839.97;;;30.75;22.25
45927;BME280;31639;47.614;19.684;2022-07-25T18:06:22;99841.38;;;30.28;22.56
45927;BME280;31639;47.614;19.684;2022-07-25T18:11:23;99836.03;;;30.01;23.29
45927;BME280;31639;47.614;19.684;2022-07-25T18:16:24;99828.84;;;29.89;23.68
45927;BME280;31639;47.614;19.684;2022-07-25T18:21:24;99827.84;;;29.70;23.69
45927;BME280;31639;47.614;19.684;2022-07-25T18:26:25;99834.06;;;29.71;23.58
45927;BME280;31639;47.614;19.684;2022-07-25T18:31:27;99822.09;;;29.75;23.58
45927;BME280;31639;47.614;19.684;2022-07-25T18:36:27;99827.00;;;29.66;23.88
45927;BME280;31639;47.614;19.684;2022-07-25T18:41:28;99828.69;;;29.48;24.76
45927;BME280;31639;47.614;19.684;2022-07-25T18:46:29;99826.84;;;29.05;26.41
45927;BME280;31639;47.614;19.684;2022-07-25T18:51:31;99831.06;;;28.56;27.49
45927;BME280;31639;47.614;19.684;2022-07-25T18:56:32;99827.00;;;28.26;28.59
45927;BME280;31639;47.614;19.684;2022-07-25T19:01:32;99826.56;;;27.69;29.50
45927;BME280;31639;47.614;19.684;2022-07-25T19:06:33;99834.34;;;27.19;30.85
45927;BME280;31639;47.614;19.684;2022-07-25T19:11:33;99830.38;;;26.84;31.25
45927;BME280;31639;47.614;19.684;2022-07-25T19:16:33;99840.03;;;26.69;31.35
45927;BME280;31639;47.614;19.684;2022-07-25T19:21:34;99836.63;;;26.15;32.13
45927;BME280;31639;47.614;19.684;2022-07-25T19:26:36;99834.78;;;25.66;32.98
45927;BME280;31639;47.614;19.684;2022-07-25T19:31:36;99839.00;;;25.51;32.67
45927;BME280;31639;47.614;19.684;2022-07-25T19:36:37;99835.03;;;25.36;33.27
45927;BME280;31639;47.614;19.684;2022-07-25T19:41:38;99834.91;;;25.33;33.26
45927;BME280;31639;47.614;19.684;2022-07-25T19:46:38;99827.81;;;25.40;32.85
45927;BME280;31639;47.614;19.684;2022-07-25T19:51:38;99829.63;;;25.49;32.99
45927;BME280;31639;47.614;19.684;2022-07-25T19:56:39;99824.47;;;25.44;32.80
45927;BME280;31639;47.614;19.684;2022-07-25T20:01:39;99821.28;;;25.29;33.08
45927;BME280;31639;47.614;19.684;2022-07-25T20:06:40;99818.56;;;24.92;33.84
45927;BME280;31639;47.614;19.684;2022-07-25T20:11:40;99810.56;;;24.49;34.92
45927;BME280;31639;47.614;19.684;2022-07-25T20:16:41;99807.66;;;24.21;35.54
45927;BME280;31639;47.614;19.684;2022-07-25T20:21:42;99808.59;;;23.95;36.13
45927;BME280;31639;47.614;19.684;2022-07-25T20:26:43;99813.56;;;23.63;36.54
45927;BME280;31639;47.614;19.684;2022-07-25T20:31:43;99807.72;;;23.31;36.94
45927;BME280;31639;47.614;19.684;2022-07-25T20:36:44;99813.75;;;23.28;37.14
45927;BME280;31639;47.614;19.684;2022-07-25T20:41:45;99818.41;;;23.01;38.19
45927;BME280;31639;47.614;19.684;2022-07-25T20:46:45;99814.34;;;22.86;38.80
45927;BME280;31639;47.614;19.684;2022-07-25T20:51:46;99816.72;;;22.79;38.98
45927;BME280;31639;47.614;19.684;2022-07-25T20:56:48;99814.88;;;22.62;39.41
45927;BME280;31639;47.614;19.684;2022-07-25T21:01:49;99817.72;;;22.39;39.06
45927;BME280;31639;47.614;19.684;2022-07-25T21:06:50;99823.56;;;22.23;39.78
45927;BME280;31639;47.614;19.684;2022-07-25T21:11:50;99833.53;;;22.23;40.09
45927;BME280;31639;47.614;19.684;2022-07-25T21:16:51;99831.78;;;22.27;39.07
45927;BME280;31639;47.614;19.684;2022-07-25T21:21:52;99817.25;;;22.28;38.73
45927;BME280;31639;47.614;19.684;2022-07-25T21:26:52;99813.13;;;22.22;39.28
45927;BME280;31639;47.614;19.684;2022-07-25T21:31:52;99824.81;;;22.08;40.16
45927;BME280;31639;47.614;19.684;2022-07-25T21:36:53;99821.81;;;22.01;40.31
45927;BME280;31639;47.614;19.684;2022-07-25T21:41:53;99815.81;;;21.96;40.22
45927;BME280;31639;47.614;19.684;2022-07-25T21:46:54;99809.94;;;21.85;40.44
45927;BME280;31639;47.614;19.684;2022-07-25T21:51:54;99807.06;;;21.63;39.92
45927;BME280;31639;47.614;19.684;2022-07-25T21:56:54;99804.09;;;21.25;39.86
45927;BME280;31639;47.614;19.684;2022-07-25T22:01:55;99813.78;;;21.03;39.31
45927;BME280;31639;47.614;19.684;2022-07-25T22:06:56;99815.72;;;20.80;39.64
45927;BME280;31639;47.614;19.684;2022-07-25T22:11:57;99817.94;;;20.41;39.70
45927;BME280;31639;47.614;19.684;2022-07-25T22:16:57;99810.09;;;20.08;39.62
45927;BME280;31639;47.614;19.684;2022-07-25T22:21:57;99799.44;;;19.80;39.39
45927;BME280;31639;47.614;19.684;2022-07-25T22:26:58;99804.88;;;19.75;39.43
45927;BME280;31639;47.614;19.684;2022-07-25T22:31:59;99806.25;;;19.72;39.14
45927;BME280;31639;47.614;19.684;2022-07-25T22:37:00;99806.06;;;19.82;39.65
45927;BME280;31639;47.614;19.684;2022-07-25T22:42:00;99814.09;;;19.96;39.58
45927;BME280;31639;47.614;19.684;2022-07-25T22:47:01;99800.72;;;19.96;39.89
45927;BME280;31639;47.614;19.684;2022-07-25T22:52:03;99814.41;;;19.95;39.83
45927;BME280;31639;47.614;19.684;2022-07-25T22:57:03;99814.59;;;19.85;40.06
45927;BME280;31639;47.614;19.684;2022-07-25T23:02:04;99814.09;;;19.68;40.45
45927;BME280;31639;47.614;19.684;2022-07-25T23:07:04;99823.13;;;19.59;40.43
45927;BME280;31639;47.614;19.684;2022-07-25T23:12:05;99831.56;;;19.52;40.45
45927;BME280;31639;47.614;19.684;2022-07-25T23:17:05;99832.72;;;19.18;40.39
45927;BME280;31639;47.614;19.684;2022-07-25T23:22:21;99837.50;;;18.88;40.58
45927;BME280;31639;47.614;19.684;2022-07-25T23:27:22;99835.28;;;18.76;41.51
45927;BME280;31639;47.614;19.684;2022-07-25T23:32:22;99833.19;;;18.73;41.98
45927;BME280;31639;47.614;19.684;2022-07-25T23:37:22;99839.41;;;18.68;42.05
45927;BME280;31639;47.614;19.684;2022-07-25T23:42:23;99828.00;;;18.62;43.39
45927;BME280;31639;47.614;19.684;2022-07-25T23:47:23;99844.25;;;18.47;43.28
45927;BME280;31639;47.614;19.684;2022-07-25T23:52:23;99857.78;;;18.37;43.72
45927;BME280;31639;47.614;19.684;2022-07-25T23:57:24;99859.19;;;18.48;43.59
